ADDS METAR Data INFO
IDs: Format: Raw Decoded Include TAF

Data at: 0924 UTC 13 Dec 2017

KEED 130856Z AUTO 24009KT 10SM CLR 11/M17 A3008 RMK AO2 SLP171 T01061172 58008
KEED 130756Z AUTO 26004KT 10SM CLR 11/M17 A3009 RMK AO2 SLP174 T01061172 402440094
KEED 130656Z AUTO 29006KT 10SM CLR 12/M18 A3010 RMK AO2 SLP177 T01171178
KEED 130556Z AUTO 27006KT 10SM CLR 12/M18 A3011 RMK AO2 SLP181 T01221178 10228 20122 56004
KEED 130456Z AUTO 25005KT 10SM CLR 14/M17 A3011 RMK AO2 SLP182 T01391172
KEED 130356Z AUTO 24010KT 10SM CLR 13/M18 A3012 RMK AO2 SLP185 T01331178
KEED 130256Z AUTO 30006KT 10SM CLR 17/M17 A3012 RMK AO2 SLP187 T01671167 55000
KEED 130156Z AUTO 31008KT 10SM CLR 18/M17 A3012 RMK AO2 SLP185 T01781172
KEED 130056Z AUTO 32007KT 10SM CLR 19/M18 A3012 RMK AO2 SLP184 T01941178
KEED 122356Z AUTO 35008KT 10SM CLR 23/M18 A3013 RMK AO2 SLP184 T02281183 10244 20189 56017
KEED 122256Z AUTO 01012KT 10SM CLR 24/M18 A3013 RMK AO2 SLP186 T02391183
KEED 122156Z AUTO 02013KT 10SM CLR 24/M18 A3015 RMK AO2 SLP190 T02441183
KEED 122056Z AUTO 03013KT 10SM CLR 24/M19 A3018 RMK AO2 SLP201 T02391194 56043
KEED 121956Z AUTO 35010KT 10SM CLR 22/M18 A3022 RMK AO2 SLP217 T02221178
KEED 121856Z AUTO 02010KT 10SM CLR 21/M17 A3026 RMK AO2 SLP231 T02111172
KEED 121756Z AUTO 01009KT 10SM CLR 19/M16 A3030 RMK AO2 SLP247 T01891161 10189 20111 50004
KEED 121656Z AUTO 34006KT 10SM CLR 17/M17 A3031 RMK AO2 SLP250 T01671167
KEED 121556Z AUTO 27004KT 10SM CLR 14/M16 A3030 RMK AO2 SLP249 T01441156
KEED 121456Z AUTO 31008KT 10SM CLR 12/M16 A3029 RMK AO2 SLP247 T01171156 53005
KEED 121356Z AUTO 33009KT 10SM CLR 13/M16 A3028 RMK AO2 SLP240 T01281161
KEED 121256Z AUTO 02010KT 10SM CLR 14/M16 A3027 RMK AO2 SLP236 T01391156
KEED 121156Z AUTO 32007KT 10SM CLR 13/M17 A3027 RMK AO2 SLP236 T01281172 10133 20094 58003
KEED 121056Z AUTO 31007KT 10SM CLR 11/M18 A3028 RMK AO2 SLP239 T01111178
KEED 120956Z AUTO 33004KT 10SM CLR 13/M18 A3028 RMK AO2 SLP239 T01281178
KEED 120856Z AUTO 30007KT 10SM CLR 12/M19 A3028 RMK AO2 SLP239 T01171189 50000
KEED 120756Z AUTO 32004KT 10SM CLR 11/M20 A3028 RMK AO2 SLP240 T01111200 402280100
KEED 120656Z AUTO 31006KT 10SM CLR 13/M19 A3028 RMK AO2 SLP241 T01281194
KEED 120556Z AUTO 31009KT 10SM CLR 13/M20 A3028 RMK AO2 SLP240 T01331200 10211 20128 53005
KEED 120456Z AUTO 32009KT 10SM CLR 16/M20 A3028 RMK AO2 SLP238 T01561200
KEED 120356Z AUTO 30008KT 10SM CLR 14/M18 A3027 RMK AO2 SLP238 T01391183
KEED 120256Z AUTO 30007KT 10SM CLR 13/M18 A3027 RMK AO2 SLP237 T01331183 51009
KEED 120156Z AUTO 35007KT 10SM CLR 18/M18 A3026 RMK AO2 SLP232 T01831183
KEED 120056Z AUTO 30004KT 10SM CLR 18/M16 A3025 RMK AO2 SLP228 T01781161
KEED 112356Z AUTO 36009KT 10SM CLR 21/M18 A3024 RMK AO2 SLP222 T02111178 10228 20183 55006
KEED 112256Z AUTO 02017KT 10SM CLR 22/M18 A3023 RMK AO2 SLP219 T02221183
KEED 112156Z AUTO 01018KT 10SM CLR 22/M18 A3025 RMK AO2 SLP225 T02221183